createdAt,value
2018-09-21T00:01:34.069Z,100078.20
2018-09-21T00:04:13.790Z,100068.85
2018-09-21T00:06:43.323Z,100069.83
2018-09-21T00:09:13.511Z,100066.66
2018-09-21T00:11:43.022Z,100071.48
2018-09-21T00:14:12.544Z,100063.15
2018-09-21T00:16:42.297Z,100056.11
2018-09-21T00:19:11.870Z,100042.11
2018-09-21T00:21:41.386Z,100042.45
2018-09-21T00:24:10.891Z,100042.11
2018-09-21T00:26:40.438Z,100038.32
2018-09-21T00:29:09.980Z,100034.98
2018-09-21T00:31:39.499Z,100029.00
2018-09-21T00:34:09.141Z,100027.31
2018-09-21T00:36:38.950Z,100019.51
2018-09-21T00:39:10.329Z,100022.83
2018-09-21T00:41:40.045Z,100020.17
2018-09-21T00:44:09.584Z,100016.36
2018-09-21T00:46:39.415Z,100010.16
2018-09-21T00:49:08.963Z,100009.67
2018-09-21T00:51:38.529Z,100000.67
2018-09-21T00:54:08.448Z,100002.35
2018-09-21T00:56:38.399Z,100005.67
2018-09-21T00:59:07.941Z,100002.52
2018-09-21T01:01:37.600Z,100004.52
2018-09-21T01:04:07.479Z,99998.18
2018-09-21T01:06:37.009Z,99989.88
2018-09-21T01:09:10.135Z,99995.55
2018-09-21T01:11:39.949Z,99989.38
2018-09-21T01:14:09.637Z,99986.89
2018-09-21T01:16:39.185Z,99975.92
2018-09-21T01:19:08.696Z,99974.62
2018-09-21T01:21:38.219Z,99966.27
2018-09-21T01:24:08.085Z,99961.11
2018-09-21T01:26:37.622Z,99954.66
2018-09-21T01:29:07.188Z,99948.61
2018-09-21T01:31:36.703Z,99946.95
2018-09-21T01:34:06.377Z,99947.67
2018-09-21T01:36:35.942Z,99936.30
2018-09-21T01:39:08.050Z,99942.81
2018-09-21T01:41:38.668Z,99940.17
2018-09-21T01:44:09.099Z,99932.84
2018-09-21T01:46:38.955Z,99936.52
2018-09-21T01:49:08.865Z,99933.69
2018-09-21T01:51:38.379Z,99937.53
2018-09-21T01:54:07.898Z,99927.53
2018-09-21T01:56:37.458Z,99926.84
2018-09-21T01:59:07.149Z,99919.49
2018-09-21T02:01:36.755Z,99912.23
2018-09-21T02:04:06.287Z,99904.74
2018-09-21T02:06:35.817Z,99904.74
2018-09-21T02:09:07.628Z,99902.75
2018-09-21T02:11:37.233Z,99885.59
2018-09-21T02:14:06.778Z,99885.10
2018-09-21T02:16:36.616Z,99883.11
2018-09-21T02:19:06.139Z,99885.58
2018-09-21T02:21:35.667Z,99875.23
2018-09-21T02:24:05.219Z,99875.12
2018-09-21T02:26:34.712Z,99879.77
2018-09-21T02:29:04.257Z,99869.62
2018-09-21T02:31:33.864Z,99868.09
2018-09-21T02:34:03.784Z,99865.08
2018-09-21T02:36:33.303Z,99869.44
2018-09-21T02:39:06.277Z,99862.77
2018-09-21T02:41:36.083Z,99858.09
2018-09-21T02:44:05.856Z,99852.30
2018-09-21T02:46:35.652Z,99841.64
2018-09-21T02:49:05.411Z,99829.34
2018-09-21T02:51:35.209Z,99823.50
2018-09-21T02:54:04.760Z,99817.69
2018-09-21T02:56:34.738Z,99803.37
2018-09-21T02:59:04.352Z,99801.53
2018-09-21T03:01:33.909Z,99797.38
2018-09-21T03:04:03.412Z,99791.88
2018-09-21T03:06:32.919Z,99786.55
2018-09-21T03:09:02.440Z,99772.58
2018-09-21T03:11:32.006Z,99769.25
2018-09-21T03:14:01.549Z,99771.27
2018-09-21T03:16:31.080Z,99764.44
2018-09-21T03:19:00.657Z,99756.46
2018-09-21T03:21:30.164Z,99753.80
2018-09-21T03:23:59.694Z,99753.96
2018-09-21T03:26:29.220Z,99755.94
2018-09-21T03:28:59.599Z,99752.14
2018-09-21T03:31:29.106Z,99734.98
2018-09-21T03:33:58.616Z,99726.32
2018-09-21T03:36:28.159Z,99721.52
2018-09-21T03:38:57.674Z,99709.02
2018-09-21T03:41:27.204Z,99700.41
2018-09-21T03:43:56.677Z,99695.57
2018-09-21T03:46:26.145Z,99682.59
2018-09-21T03:48:55.669Z,99676.44
2018-09-21T03:51:25.226Z,99672.45
2018-09-21T03:53:54.877Z,99662.30
2018-09-21T03:56:24.353Z,99659.81
2018-09-21T03:58:53.920Z,99660.66
2018-09-21T04:01:23.448Z,99657.80
2018-09-21T04:03:53.056Z,99644.69
2018-09-21T04:06:22.546Z,99635.86
2018-09-21T04:08:52.200Z,99633.02
2018-09-21T04:11:21.735Z,99635.52
2018-09-21T04:13:51.291Z,99623.73
2018-09-21T04:16:20.821Z,99617.91
2018-09-21T04:18:50.393Z,99614.88
2018-09-21T04:21:20.013Z,99613.70
2018-09-21T04:23:49.599Z,99617.20
2018-09-21T04:26:19.282Z,99613.89
2018-09-21T04:28:49.482Z,99607.05
2018-09-21T04:31:19.046Z,99614.02
2018-09-21T04:33:48.534Z,99613.36
2018-09-21T04:36:18.037Z,99600.86
2018-09-21T04:38:47.544Z,99602.88
2018-09-21T04:41:17.040Z,99592.72
2018-09-21T04:43:46.533Z,99597.55
2018-09-21T04:46:16.413Z,99606.50
2018-09-21T04:48:46.133Z,99596.37
2018-09-21T04:51:15.634Z,99599.84
2018-09-21T04:53:45.503Z,99593.18
2018-09-21T04:56:14.995Z,99596.84
2018-09-21T04:58:44.963Z,99593.18
2018-09-21T05:01:14.490Z,99581.19
2018-09-21T05:03:44.029Z,99582.00
2018-09-21T05:06:13.639Z,99592.00
2018-09-21T05:08:43.297Z,99570.17
2018-09-21T05:11:12.858Z,99571.50
2018-09-21T05:13:42.942Z,99578.00
2018-09-21T05:16:12.833Z,99574.01
2018-09-21T05:18:42.413Z,99576.17
2018-09-21T05:21:12.009Z,99545.36
2018-09-21T05:23:41.540Z,99561.83
2018-09-21T05:26:11.095Z,99560.16
2018-09-21T05:28:40.621Z,99554.48
2018-09-21T05:31:10.189Z,99551.32
2018-09-21T05:33:39.690Z,99564.64
2018-09-21T05:36:09.225Z,99565.13
2018-09-21T05:38:38.781Z,99554.13
2018-09-21T05:41:08.925Z,99554.81
2018-09-21T05:43:38.471Z,99553.44
2018-09-21T05:46:08.030Z,99540.47
2018-09-21T05:48:37.933Z,99544.16
2018-09-21T05:51:08.042Z,99553.94
2018-09-21T05:53:37.543Z,99552.45
2018-09-21T05:56:08.086Z,99547.96
2018-09-21T05:58:37.752Z,99546.28
2018-09-21T06:01:07.358Z,99534.44
2018-09-21T06:03:36.972Z,99529.81
2018-09-21T06:06:06.771Z,99527.64
2018-09-21T06:08:36.388Z,99518.47
2018-09-21T06:11:05.934Z,99518.47
2018-09-21T06:13:35.491Z,99530.95
2018-09-21T06:16:05.242Z,99518.17
2018-09-21T06:18:34.817Z,99522.18
2018-09-21T06:21:04.379Z,99515.72
2018-09-21T06:23:34.146Z,99520.05
2018-09-21T06:26:03.771Z,99520.39
2018-09-21T06:28:33.338Z,99519.52
2018-09-21T06:31:02.898Z,99508.80
2018-09-21T06:33:32.767Z,99512.21
2018-09-21T06:36:02.335Z,99514.53
2018-09-21T06:38:31.882Z,99513.55
2018-09-21T06:41:01.611Z,99507.03
2018-09-21T06:43:31.339Z,99514.19
2018-09-21T06:46:01.139Z,99525.52
2018-09-21T06:48:31.540Z,99523.80
2018-09-21T06:51:01.068Z,99523.78
2018-09-21T06:53:30.622Z,99527.30
2018-09-21T06:56:00.480Z,99551.07
2018-09-21T06:58:30.032Z,99539.44
2018-09-21T07:00:59.597Z,99527.14
2018-09-21T07:03:29.255Z,99531.09
2018-09-21T07:05:58.861Z,99529.27
2018-09-21T07:08:28.394Z,99534.75
2018-09-21T07:10:58.116Z,99535.58
2018-09-21T07:13:27.589Z,99532.27
2018-09-21T07:15:57.412Z,99528.28
2018-09-21T07:18:27.078Z,99530.12
2018-09-21T07:20:57.607Z,99531.49
2018-09-21T07:23:27.113Z,99545.00
2018-09-21T07:25:56.668Z,99556.45
2018-09-21T07:28:26.257Z,99539.83
2018-09-21T07:30:55.955Z,99553.94
2018-09-21T07:33:26.155Z,99568.23
2018-09-21T07:35:56.694Z,99567.11
2018-09-21T07:38:26.245Z,99559.11
2018-09-21T07:40:55.745Z,99561.63
2018-09-21T07:43:25.266Z,99561.43
2018-09-21T07:45:54.752Z,99558.28
2018-09-21T07:48:24.298Z,99571.20
2018-09-21T07:50:53.831Z,99578.75
2018-09-21T07:53:23.344Z,99573.77
2018-09-21T07:55:52.985Z,99576.97
2018-09-21T07:58:22.535Z,99572.73
2018-09-21T08:00:52.055Z,99576.13
2018-09-21T08:03:21.531Z,99563.16
2018-09-21T08:05:51.049Z,99557.14
2018-09-21T08:08:20.532Z,99574.95
2018-09-21T08:10:50.099Z,99564.48
2018-09-21T08:13:19.618Z,99551.33
2018-09-21T08:15:49.173Z,99533.02
2018-09-21T08:18:19.393Z,99537.86
2018-09-21T08:20:48.907Z,99554.61
2018-09-21T08:23:18.415Z,99556.63
2018-09-21T08:25:47.963Z,99557.23
2018-09-21T08:28:17.485Z,99553.62
2018-09-21T08:30:46.987Z,99546.96
2018-09-21T08:33:16.536Z,99544.47
2018-09-21T08:35:46.294Z,99539.14
2018-09-21T08:38:15.778Z,99535.33
2018-09-21T08:40:45.276Z,99537.98
2018-09-21T08:43:14.820Z,99523.36
2018-09-21T08:45:44.689Z,99536.81
2018-09-21T08:48:14.213Z,99526.66
2018-09-21T08:50:43.764Z,99537.30
2018-09-21T08:53:13.336Z,99536.32
2018-09-21T08:55:42.878Z,99532.90
2018-09-21T08:58:12.468Z,99546.20
2018-09-21T09:00:42.058Z,99558.55
2018-09-21T09:03:11.720Z,99585.50
2018-09-21T09:05:41.385Z,99605.16
2018-09-21T09:08:10.964Z,99635.87
2018-09-21T09:10:40.496Z,99654.47
2018-09-21T09:13:10.174Z,99692.48
2018-09-21T09:15:39.716Z,99707.59
2018-09-21T09:18:09.209Z,99715.67
2018-09-21T09:20:38.743Z,99736.83
2018-09-21T09:23:08.787Z,99756.45
2018-09-21T09:25:38.284Z,99786.34
2018-09-21T09:28:08.198Z,99821.75
2018-09-21T09:30:37.713Z,99834.56
2018-09-21T09:33:07.546Z,99849.36
2018-09-21T09:35:37.053Z,99866.48
2018-09-21T09:38:07.265Z,99852.94
2018-09-21T09:40:36.815Z,99886.28
2018-09-21T09:43:06.319Z,99888.73
2018-09-21T09:45:36.046Z,99894.03
2018-09-21T09:48:05.552Z,99890.20
2018-09-21T09:50:35.072Z,99897.64
2018-09-21T09:53:04.614Z,99905.19
2018-09-21T09:55:34.159Z,99913.45
2018-09-21T09:58:03.679Z,99921.23
2018-09-21T10:00:36.147Z,99910.70
2018-09-21T10:03:05.618Z,99903.89
2018-09-21T10:05:35.183Z,99894.89
2018-09-21T10:08:04.675Z,99906.86
2018-09-21T10:10:34.457Z,99915.00
2018-09-21T10:13:03.947Z,99924.11
2018-09-21T10:15:33.514Z,99929.12
2018-09-21T10:18:03.298Z,99936.66
2018-09-21T10:20:32.822Z,99929.00
2018-09-21T10:23:02.774Z,99934.26
2018-09-21T10:25:33.261Z,99936.31
2018-09-21T10:28:03.234Z,99934.22
2018-09-21T10:30:33.127Z,99930.91
2018-09-21T10:33:02.855Z,99949.47
2018-09-21T10:35:32.544Z,99947.27
2018-09-21T10:38:02.151Z,99945.22
2018-09-21T10:40:31.652Z,99945.80
2018-09-21T10:43:01.789Z,99944.84
2018-09-21T10:45:31.449Z,99944.01
2018-09-21T10:48:01.030Z,99954.79
2018-09-21T10:50:30.543Z,99940.97
2018-09-21T10:53:00.104Z,99950.74
2018-09-21T10:55:29.731Z,99934.02
2018-09-21T10:57:59.283Z,99939.18
2018-09-21T11:00:28.866Z,99942.38
2018-09-21T11:02:58.513Z,99937.02
2018-09-21T11:05:28.050Z,99944.32
2018-09-21T11:07:57.554Z,99936.80
2018-09-21T11:10:27.106Z,99942.64
2018-09-21T11:12:56.639Z,99931.53
2018-09-21T11:15:26.415Z,99914.77
2018-09-21T11:17:55.942Z,99936.56
2018-09-21T11:20:25.463Z,99942.64
2018-09-21T11:22:54.989Z,99943.86
2018-09-21T11:25:24.525Z,99940.98
2018-09-21T11:27:54.083Z,99947.09
2018-09-21T11:30:23.608Z,99930.56
2018-09-21T11:32:53.231Z,99933.43
2018-09-21T11:35:22.967Z,99934.98
2018-09-21T11:37:52.556Z,99934.41
2018-09-21T11:40:22.092Z,99950.06
2018-09-21T11:42:51.587Z,99960.12
2018-09-21T11:45:21.101Z,99962.28
2018-09-21T11:47:50.708Z,99953.05
2018-09-21T11:50:20.422Z,99961.53
2018-09-21T11:52:49.897Z,99969.95
2018-09-21T11:55:19.448Z,99977.86
2018-09-21T11:57:48.958Z,99987.18
2018-09-21T12:00:18.490Z,99988.97
2018-09-21T12:02:47.999Z,99984.91
2018-09-21T12:05:17.555Z,99977.94
2018-09-21T12:07:47.273Z,99979.02
2018-09-21T12:10:17.128Z,99971.80
2018-09-21T12:12:46.703Z,99973.97
2018-09-21T12:15:16.694Z,99970.37
2018-09-21T12:17:46.257Z,99963.89
2018-09-21T12:20:15.795Z,99969.31
2018-09-21T12:22:45.367Z,99955.61
2018-09-21T12:25:15.217Z,99971.44
2018-09-21T12:27:44.798Z,99980.31
2018-09-21T12:30:14.428Z,99986.43
2018-09-21T12:32:44.313Z,99994.46
2018-09-21T12:35:13.879Z,99989.55
2018-09-21T12:37:43.442Z,99998.16
2018-09-21T12:40:13.285Z,99998.16
2018-09-21T12:42:42.838Z,99999.47
2018-09-21T12:45:12.504Z,99995.13
2018-09-21T12:47:42.052Z,100004.34
2018-09-21T12:50:11.632Z,100015.70
2018-09-21T12:52:41.365Z,100017.02
2018-09-21T12:55:10.930Z,100024.00
2018-09-21T12:57:40.556Z,100027.59
2018-09-21T13:00:11.287Z,100018.48
2018-09-21T13:02:41.521Z,100029.40
2018-09-21T13:05:11.252Z,100026.64
2018-09-21T13:07:40.805Z,100033.55
2018-09-21T13:10:10.794Z,100051.94
2018-09-21T13:12:40.404Z,100048.69
2018-09-21T13:15:10.343Z,100053.73
2018-09-21T13:17:39.852Z,100056.34
2018-09-21T13:20:09.746Z,100058.13
2018-09-21T13:22:39.269Z,100068.17
2018-09-21T13:25:09.175Z,100055.45
2018-09-21T13:27:38.717Z,100054.99
2018-09-21T13:30:08.327Z,100057.37
2018-09-21T13:32:37.878Z,100069.24
2018-09-21T13:35:07.494Z,100069.35
2018-09-21T13:37:37.071Z,100076.41
2018-09-21T13:40:06.616Z,100089.83
2018-09-21T13:42:36.121Z,100088.03
2018-09-21T13:45:06.006Z,100096.70
2018-09-21T13:47:35.552Z,100091.52
2018-09-21T13:50:05.436Z,100091.89
2018-09-21T13:52:35.023Z,100094.16
2018-09-21T13:55:04.952Z,100113.34
2018-09-21T13:57:34.464Z,100105.81
2018-09-21T14:00:04.296Z,100111.42
2018-09-21T14:02:33.861Z,100109.96
2018-09-21T14:05:03.584Z,100107.94
2018-09-21T14:07:33.146Z,100109.48
2018-09-21T14:10:03.815Z,100130.16
2018-09-21T14:12:33.461Z,100139.86
2018-09-21T14:15:03.053Z,100128.59
2018-09-21T14:17:32.591Z,100137.68
2018-09-21T14:20:02.235Z,100137.45
2018-09-21T14:22:31.786Z,100141.87
2018-09-21T14:25:01.479Z,100154.47
2018-09-21T14:27:31.164Z,100138.41
2018-09-21T14:30:00.697Z,100139.03
2018-09-21T14:32:30.251Z,100153.09
2018-09-21T14:34:59.856Z,100148.51
2018-09-21T14:37:29.394Z,100156.68
2018-09-21T14:39:58.907Z,100153.45
2018-09-21T14:42:29.682Z,100151.30
2018-09-21T14:44:59.618Z,100176.84
2018-09-21T14:47:29.149Z,100169.88
2018-09-21T14:49:58.652Z,100176.22
2018-09-21T14:52:28.223Z,100169.02
2018-09-21T14:54:57.816Z,100168.06
2018-09-21T14:57:27.341Z,100168.92
2018-09-21T14:59:57.057Z,100176.84
2018-09-21T15:02:26.771Z,100193.75
2018-09-21T15:04:56.283Z,100206.21
2018-09-21T15:07:25.820Z,100203.19
2018-09-21T15:09:55.717Z,100211.81
2018-09-21T15:12:25.443Z,100202.36
2018-09-21T15:14:55.074Z,100213.16
2018-09-21T15:17:24.623Z,100217.25
2018-09-21T15:19:54.312Z,100206.92
2018-09-21T15:22:23.833Z,100215.30
2018-09-21T15:24:53.849Z,100209.42
2018-09-21T15:27:23.353Z,100218.88
2018-09-21T15:29:52.927Z,100219.11
2018-09-21T15:32:22.482Z,100226.31
2018-09-21T15:34:53.214Z,100233.77
2018-09-21T15:37:22.755Z,100241.34
2018-09-21T15:39:52.216Z,100226.08
2018-09-21T15:42:21.725Z,100236.89
2018-09-21T15:44:51.328Z,100238.91
2018-09-21T15:47:20.845Z,100233.64
2018-09-21T15:49:50.384Z,100229.45
2018-09-21T15:52:19.913Z,100242.55
2018-09-21T15:54:49.594Z,100248.69
2018-09-21T15:57:19.109Z,100252.13
2018-09-21T15:59:49.041Z,100250.09
2018-09-21T16:02:18.542Z,100245.98
2018-09-21T16:04:48.057Z,100253.09
2018-09-21T16:07:17.537Z,100261.75
2018-09-21T16:09:47.194Z,100260.57
2018-09-21T16:12:17.181Z,100267.28
2018-09-21T16:14:46.706Z,100270.05
2018-09-21T16:17:16.260Z,100272.69
2018-09-21T16:19:45.804Z,100271.61
2018-09-21T16:22:15.337Z,100274.96
2018-09-21T16:24:44.878Z,100276.66
2018-09-21T16:27:14.461Z,100278.81
2018-09-21T16:29:43.989Z,100286.48
2018-09-21T16:32:13.509Z,100292.00
2018-09-21T16:34:43.417Z,100286.97
2018-09-21T16:37:12.925Z,100286.49
2018-09-21T16:39:42.502Z,100286.59
2018-09-21T16:42:12.038Z,100282.64
2018-09-21T16:44:41.675Z,100289.14
2018-09-21T16:47:11.327Z,100291.03
2018-09-21T16:49:40.868Z,100292.59
2018-09-21T16:52:10.598Z,100291.77
2018-09-21T16:54:40.130Z,100297.15
2018-09-21T16:57:09.668Z,100297.38
2018-09-21T16:59:39.537Z,100295.59
2018-09-21T17:02:09.086Z,100302.79
2018-09-21T17:04:38.904Z,100300.85
2018-09-21T17:07:08.607Z,100296.80
2018-09-21T17:09:38.187Z,100306.14
2018-09-21T17:12:07.973Z,100305.89
2018-09-21T17:14:37.559Z,100316.80
2018-09-21T17:17:07.501Z,100326.73
2018-09-21T17:19:37.017Z,100325.77
2018-09-21T17:22:06.942Z,100336.88
2018-09-21T17:24:36.545Z,100337.26
2018-09-21T17:27:06.432Z,100339.42
2018-09-21T17:29:35.932Z,100336.31
2018-09-21T17:32:05.538Z,100341.84
2018-09-21T17:34:35.292Z,100353.08
2018-09-21T17:37:05.299Z,100353.44
2018-09-21T17:39:34.917Z,100354.27
2018-09-21T17:42:04.776Z,100354.06
2018-09-21T17:44:34.325Z,100360.18
2018-09-21T17:47:03.888Z,100371.30
2018-09-21T17:49:33.651Z,100372.11
2018-09-21T17:52:03.146Z,100378.84
2018-09-21T17:54:32.669Z,100383.64
2018-09-21T17:57:02.220Z,100388.22
2018-09-21T17:59:31.725Z,100388.22
2018-09-21T18:02:01.350Z,100395.34
2018-09-21T18:04:31.004Z,100396.54
2018-09-21T18:07:00.532Z,100399.20
2018-09-21T18:09:30.061Z,100406.58
2018-09-21T18:11:59.763Z,100398.67
2018-09-21T18:14:29.465Z,100415.39
2018-09-21T18:16:59.035Z,100416.74
2018-09-21T18:19:28.590Z,100419.75
2018-09-21T18:21:58.090Z,100427.53
2018-09-21T18:24:27.653Z,100434.59
2018-09-21T18:26:57.331Z,100430.83
2018-09-21T18:29:26.846Z,100432.40
2018-09-21T18:31:56.351Z,100434.91
2018-09-21T18:34:26.116Z,100428.31
2018-09-21T18:36:55.699Z,100426.23
2018-09-21T18:39:25.294Z,100441.08
2018-09-21T18:41:54.822Z,100449.36
2018-09-21T18:44:24.559Z,100448.00
2018-09-21T18:46:54.097Z,100460.80
2018-09-21T18:49:23.653Z,100472.91
2018-09-21T18:51:53.402Z,100502.66
2018-09-21T18:54:23.001Z,100519.56
2018-09-21T18:56:52.551Z,100503.41
2018-09-21T18:59:22.129Z,100520.91
2018-09-21T19:01:51.657Z,100520.64
2018-09-21T19:04:21.225Z,100523.11
2018-09-21T19:06:52.052Z,100517.44
2018-09-21T19:09:21.608Z,100502.63
2018-09-21T19:11:51.120Z,100521.53
2018-09-21T19:14:21.438Z,100522.84
2018-09-21T19:16:50.979Z,100523.23
2018-09-21T19:19:20.513Z,100529.81
2018-09-21T19:21:49.990Z,100537.59
2018-09-21T19:24:19.510Z,100537.97
2018-09-21T19:26:49.029Z,100547.06
2018-09-21T19:29:18.531Z,100539.22
2018-09-21T19:31:48.034Z,100549.55
2018-09-21T19:34:17.570Z,100553.30
2018-09-21T19:36:47.324Z,100551.98
2018-09-21T19:39:16.862Z,100546.98
2018-09-21T19:41:46.383Z,100543.03
2018-09-21T19:44:15.978Z,100552.55
2018-09-21T19:46:45.575Z,100549.59
2018-09-21T19:49:15.244Z,100561.03
2018-09-21T19:51:44.779Z,100558.86
2018-09-21T19:54:14.418Z,100551.41
2018-09-21T19:56:44.012Z,100556.99
2018-09-21T19:59:13.528Z,100554.86
2018-09-21T20:01:43.045Z,100554.86
2018-09-21T20:04:12.884Z,100564.63
2018-09-21T20:06:42.397Z,100575.22
2018-09-21T20:09:12.825Z,100569.58
2018-09-21T20:11:46.463Z,100562.20
2018-09-21T20:14:16.008Z,100574.88
2018-09-21T20:16:45.555Z,100575.45
2018-09-21T20:19:15.426Z,100582.45
2018-09-21T20:21:45.043Z,100595.47
2018-09-21T20:24:14.562Z,100590.67
2018-09-21T20:26:44.105Z,100602.84
2018-09-21T20:29:13.584Z,100606.41
2018-09-21T20:34:21.712Z,100600.13
2018-09-21T20:36:51.259Z,100598.95
2018-09-21T20:39:20.771Z,100610.62
2018-09-21T20:41:50.273Z,100598.03
2018-09-21T20:44:20.197Z,100602.37
2018-09-21T20:46:49.763Z,100602.92
2018-09-21T20:49:19.305Z,100606.66
2018-09-21T20:51:49.124Z,100607.07
2018-09-21T20:54:18.862Z,100608.65
2018-09-21T20:56:48.432Z,100624.88
2018-09-21T20:59:18.084Z,100623.30
2018-09-21T21:01:47.823Z,100611.45
2018-09-21T21:04:17.350Z,100627.98
2018-09-21T21:06:46.873Z,100625.70
2018-09-21T21:09:16.367Z,100621.78
2018-09-21T21:11:46.202Z,100625.14
2018-09-21T21:14:15.727Z,100627.30
2018-09-21T21:16:45.262Z,100634.34
2018-09-21T21:19:14.963Z,100628.53
2018-09-21T21:21:44.531Z,100631.55
2018-09-21T21:24:14.021Z,100631.08
2018-09-21T21:26:43.599Z,100649.33
2018-09-21T21:29:13.154Z,100635.89
2018-09-21T21:31:42.702Z,100638.45
2018-09-21T21:34:12.572Z,100647.63
2018-09-21T21:36:42.165Z,100657.61
2018-09-21T21:39:11.685Z,100651.80
2018-09-21T21:41:41.173Z,100661.48
2018-09-21T21:44:10.681Z,100674.56
2018-09-21T21:46:40.185Z,100658.77
2018-09-21T21:49:09.718Z,100683.84
2018-09-21T21:51:39.853Z,100677.69
2018-09-21T21:54:09.353Z,100691.12
2018-09-21T21:56:38.894Z,100689.72
2018-09-21T21:59:08.391Z,100707.84
2018-09-21T22:01:43.268Z,100705.70
2018-09-21T22:04:12.833Z,100707.64
2018-09-21T22:06:42.379Z,100701.84
2018-09-21T22:09:12.485Z,100706.05
2018-09-21T22:11:47.176Z,100701.67
2018-09-21T22:14:16.826Z,100710.41
2018-09-21T22:16:46.319Z,100721.02
2018-09-21T22:19:16.058Z,100721.50
2018-09-21T22:21:45.906Z,100725.83
2018-09-21T22:24:16.410Z,100723.58
2018-09-21T22:26:45.984Z,100732.02
2018-09-21T22:29:15.464Z,100718.23
2018-09-21T22:31:45.006Z,100729.02
2018-09-21T22:34:14.481Z,100737.47
2018-09-21T22:36:43.986Z,100737.56
2018-09-21T22:39:13.491Z,100742.25
2018-09-21T22:41:43.262Z,100736.55
2018-09-21T22:44:12.808Z,100734.08
2018-09-21T22:46:42.318Z,100740.84
2018-09-21T22:49:17.052Z,100749.32
2018-09-21T22:51:46.563Z,100761.33
2018-09-21T22:54:16.369Z,100773.37
2018-09-21T22:56:45.933Z,100766.95
2018-09-21T22:59:15.457Z,100782.28
2018-09-21T23:01:45.337Z,100793.75
2018-09-21T23:04:15.290Z,100818.89
2018-09-21T23:06:45.165Z,100818.08
2018-09-21T23:09:14.646Z,100828.53
2018-09-21T23:11:44.169Z,100839.30
2018-09-21T23:14:13.626Z,100823.47
2018-09-21T23:16:43.233Z,100842.28
2018-09-21T23:19:13.118Z,100833.70
2018-09-21T23:21:42.731Z,100831.38
2018-09-21T23:24:12.279Z,100829.22
2018-09-21T23:26:41.809Z,100830.41
2018-09-21T23:29:11.671Z,100830.33
2018-09-21T23:31:41.364Z,100846.27
2018-09-21T23:34:11.073Z,100849.20
2018-09-21T23:36:40.564Z,100864.45
2018-09-21T23:39:11.053Z,100862.45
2018-09-21T23:41:40.649Z,100855.58
2018-09-21T23:44:10.685Z,100883.17
2018-09-21T23:46:40.222Z,100904.32
2018-09-21T23:49:09.709Z,100893.44
2018-09-21T23:51:39.185Z,100877.80
2018-09-21T23:54:08.682Z,100875.94
2018-09-21T23:56:38.177Z,100867.14
2018-09-21T23:59:08.038Z,100870.91
